createdAt,value
2022-10-16T00:01:38.048Z,3.80
2022-10-16T00:16:38.599Z,3.20
2022-10-16T00:31:39.695Z,2.60
2022-10-16T00:46:42.032Z,2.40
2022-10-16T01:01:42.606Z,2.00
2022-10-16T01:16:42.724Z,2.30
2022-10-16T01:31:42.825Z,2.20
2022-10-16T01:46:42.933Z,2.20
2022-10-16T02:01:43.034Z,2.00
2022-10-16T02:16:43.679Z,1.90
2022-10-16T02:31:44.726Z,2.00
2022-10-16T02:46:44.341Z,1.90
2022-10-16T03:01:44.428Z,1.80
2022-10-16T03:16:45.058Z,2.10
2022-10-16T03:31:45.649Z,1.80
2022-10-16T03:46:45.781Z,1.90
2022-10-16T04:01:46.322Z,1.90
2022-10-16T04:16:45.943Z,2.40
2022-10-16T04:31:46.547Z,2.60
2022-10-16T04:46:46.146Z,2.70
2022-10-16T05:01:46.242Z,2.50
2022-10-16T05:16:48.091Z,3.20
2022-10-16T05:31:48.461Z,3.60
2022-10-16T05:46:49.052Z,3.70
2022-10-16T06:01:48.697Z,3.90
2022-10-16T06:16:49.301Z,4.40
2022-10-16T06:31:49.375Z,3.70
2022-10-16T06:46:50.479Z,3.60
2022-10-16T07:01:50.630Z,3.10
2022-10-16T07:16:51.708Z,2.70
2022-10-16T07:31:51.868Z,3.10
2022-10-16T07:46:52.409Z,3.40
2022-10-16T08:01:52.654Z,2.90
2022-10-16T08:16:52.613Z,2.70
2022-10-16T08:31:52.720Z,2.90
2022-10-16T08:46:54.390Z,2.80
2022-10-16T09:01:54.906Z,2.30
2022-10-16T09:16:55.055Z,1.90
2022-10-16T09:31:56.132Z,1.60
2022-10-16T09:46:56.699Z,4.10
2022-10-16T10:01:56.816Z,1.60
2022-10-16T10:16:57.395Z,1.60
2022-10-16T10:31:57.014Z,1.20
2022-10-16T10:46:57.194Z,1.60
2022-10-16T11:01:57.888Z,3.70
2022-10-16T11:16:58.406Z,4.10
2022-10-16T11:31:58.545Z,3.50
2022-10-16T11:47:00.576Z,3.20
2022-10-16T12:02:04.270Z,1.30
2022-10-16T12:17:04.353Z,1.00
2022-10-16T12:32:04.919Z,0.60
2022-10-16T12:47:05.060Z,0.90
2022-10-16T13:02:04.710Z,1.00
2022-10-16T13:17:05.283Z,0.90
2022-10-16T13:32:05.477Z,0.60
2022-10-16T13:47:06.075Z,0.80
2022-10-16T14:02:06.259Z,0.70
2022-10-16T14:17:06.787Z,1.00
2022-10-16T14:32:07.387Z,0.90
2022-10-16T14:47:07.461Z,0.80
2022-10-16T15:02:08.061Z,0.60
2022-10-16T15:17:08.175Z,0.90
2022-10-16T15:32:09.897Z,1.20
2022-10-16T15:47:09.913Z,1.00
2022-10-16T16:02:10.648Z,1.40
2022-10-16T16:17:11.113Z,2.00
2022-10-16T16:32:11.199Z,2.90
2022-10-16T16:47:11.314Z,3.10
2022-10-16T17:02:12.019Z,3.20
2022-10-16T17:17:12.507Z,5.30
2022-10-16T17:32:12.667Z,6.10
2022-10-16T17:47:12.790Z,4.70
2022-10-16T18:02:12.937Z,6.70
2022-10-16T18:17:12.945Z,6.10
2022-10-16T18:32:13.619Z,6.20
2022-10-16T18:47:14.991Z,5.50
2022-10-16T19:02:17.011Z,12.20
2022-10-16T19:17:18.001Z,13.40
2022-10-16T19:32:18.633Z,16.40
2022-10-16T19:47:22.278Z,16.20
2022-10-16T20:02:23.954Z,18.30
2022-10-16T20:17:24.743Z,18.20
2022-10-16T20:32:26.073Z,18.90
2022-10-16T20:47:26.140Z,17.60
2022-10-16T21:02:26.818Z,17.70
2022-10-16T21:17:26.912Z,19.00
2022-10-16T21:32:27.355Z,19.10
2022-10-16T21:47:28.620Z,29.80
2022-10-16T22:02:29.500Z,30.80
2022-10-16T22:17:30.021Z,20.90
2022-10-16T22:32:30.749Z,14.20
2022-10-16T22:47:31.351Z,17.50
2022-10-16T23:02:31.536Z,18.10
2022-10-16T23:17:32.077Z,17.00
2022-10-16T23:32:32.661Z,15.50
2022-10-16T23:47:33.523Z,10.00
